sensor_id;sensor_type;location;lat;lon;timestamp;temperature;humidity
80250;DHT22;69561;37.974;23.708;2023-04-24T00:00:19;24.60;37.00
80250;DHT22;69561;37.974;23.708;2023-04-24T00:02:45;24.60;37.00
80250;DHT22;69561;37.974;23.708;2023-04-24T00:05:14;24.60;37.10
80250;DHT22;69561;37.974;23.708;2023-04-24T00:07:44;24.60;37.00
80250;DHT22;69561;37.974;23.708;2023-04-24T00:10:11;24.60;37.10
80250;DHT22;69561;37.974;23.708;2023-04-24T00:12:37;24.60;37.20
80250;DHT22;69561;37.974;23.708;2023-04-24T00:15:04;24.60;37.10
80250;DHT22;69561;37.974;23.708;2023-04-24T00:17:30;24.60;37.10
80250;DHT22;69561;37.974;23.708;2023-04-24T00:19:56;24.60;37.10
80250;DHT22;69561;37.974;23.708;2023-04-24T00:22:27;24.60;37.10
80250;DHT22;69561;37.974;23.708;2023-04-24T00:24:53;24.60;37.10
80250;DHT22;69561;37.974;23.708;2023-04-24T00:27:19;24.60;37.20
80250;DHT22;69561;37.974;23.708;2023-04-24T00:29:45;24.60;37.10
80250;DHT22;69561;37.974;23.708;2023-04-24T00:32:11;24.60;37.20
80250;DHT22;69561;37.974;23.708;2023-04-24T00:34:37;24.60;37.20
80250;DHT22;69561;37.974;23.708;2023-04-24T00:37:03;24.60;37.20
80250;DHT22;69561;37.974;23.708;2023-04-24T00:39:28;24.60;37.30
80250;DHT22;69561;37.974;23.708;2023-04-24T00:41:54;24.60;37.20
80250;DHT22;69561;37.974;23.708;2023-04-24T00:44:20;24.60;37.20
80250;DHT22;69561;37.974;23.708;2023-04-24T00:46:46;24.60;38.30
80250;DHT22;69561;37.974;23.708;2023-04-24T00:49:18;24.60;37.30
80250;DHT22;69561;37.974;23.708;2023-04-24T00:51:44;24.60;37.20
80250;DHT22;69561;37.974;23.708;2023-04-24T00:54:11;24.60;37.30
80250;DHT22;69561;37.974;23.708;2023-04-24T00:56:37;24.60;37.30
80250;DHT22;69561;37.974;23.708;2023-04-24T00:59:03;24.60;37.30
80250;DHT22;69561;37.974;23.708;2023-04-24T01:01:30;24.60;37.30
80250;DHT22;69561;37.974;23.708;2023-04-24T01:03:57;24.60;37.30
80250;DHT22;69561;37.974;23.708;2023-04-24T01:06:23;24.60;37.30
80250;DHT22;69561;37.974;23.708;2023-04-24T01:08:52;24.60;37.30
80250;DHT22;69561;37.974;23.708;2023-04-24T01:11:18;24.60;37.40
80250;DHT22;69561;37.974;23.708;2023-04-24T01:13:46;24.50;37.30
80250;DHT22;69561;37.974;23.708;2023-04-24T01:16:12;24.60;37.40
80250;DHT22;69561;37.974;23.708;2023-04-24T01:18:38;24.60;37.40
80250;DHT22;69561;37.974;23.708;2023-04-24T01:21:04;24.60;37.40
80250;DHT22;69561;37.974;23.708;2023-04-24T01:23:31;24.50;37.40
80250;DHT22;69561;37.974;23.708;2023-04-24T01:25:56;24.50;37.40
80250;DHT22;69561;37.974;23.708;2023-04-24T01:28:22;24.60;37.50
80250;DHT22;69561;37.974;23.708;2023-04-24T01:30:48;24.60;37.40
80250;DHT22;69561;37.974;23.708;2023-04-24T01:33:14;24.50;37.40
80250;DHT22;69561;37.974;23.708;2023-04-24T01:35:41;24.50;37.40
80250;DHT22;69561;37.974;23.708;2023-04-24T01:38:07;24.60;37.50
80250;DHT22;69561;37.974;23.708;2023-04-24T01:40:32;24.50;37.40
80250;DHT22;69561;37.974;23.708;2023-04-24T01:42:59;24.60;37.50
80250;DHT22;69561;37.974;23.708;2023-04-24T01:45:25;24.50;37.40
80250;DHT22;69561;37.974;23.708;2023-04-24T01:47:51;24.60;37.50
80250;DHT22;69561;37.974;23.708;2023-04-24T01:50:17;24.50;37.50
80250;DHT22;69561;37.974;23.708;2023-04-24T01:52:43;24.50;37.50
80250;DHT22;69561;37.974;23.708;2023-04-24T01:55:10;24.50;37.50
80250;DHT22;69561;37.974;23.708;2023-04-24T01:57:36;24.50;37.50
80250;DHT22;69561;37.974;23.708;2023-04-24T02:00:02;24.50;37.50
80250;DHT22;69561;37.974;23.708;2023-04-24T02:02:30;24.50;37.50
80250;DHT22;69561;37.974;23.708;2023-04-24T02:04:56;24.50;37.50
80250;DHT22;69561;37.974;23.708;2023-04-24T02:07:22;24.50;37.60
80250;DHT22;69561;37.974;23.708;2023-04-24T02:09:48;24.50;37.60
80250;DHT22;69561;37.974;23.708;2023-04-24T02:12:15;24.50;37.60
80250;DHT22;69561;37.974;23.708;2023-04-24T02:14:41;24.50;37.50
80250;DHT22;69561;37.974;23.708;2023-04-24T02:17:07;24.50;37.60
80250;DHT22;69561;37.974;23.708;2023-04-24T02:19:33;24.50;37.60
80250;DHT22;69561;37.974;23.708;2023-04-24T02:21:59;24.50;37.60
80250;DHT22;69561;37.974;23.708;2023-04-24T02:24:25;24.50;37.60
80250;DHT22;69561;37.974;23.708;2023-04-24T02:26:50;24.50;37.60
80250;DHT22;69561;37.974;23.708;2023-04-24T02:29:16;24.50;37.60
80250;DHT22;69561;37.974;23.708;2023-04-24T02:31:42;24.50;37.70
80250;DHT22;69561;37.974;23.708;2023-04-24T02:34:07;24.50;37.60
80250;DHT22;69561;37.974;23.708;2023-04-24T02:36:33;24.50;38.60
80250;DHT22;69561;37.974;23.708;2023-04-24T02:38:59;24.50;37.60
80250;DHT22;69561;37.974;23.708;2023-04-24T02:41:25;24.50;37.60
80250;DHT22;69561;37.974;23.708;2023-04-24T02:43:56;24.50;37.70
80250;DHT22;69561;37.974;23.708;2023-04-24T02:46:22;24.50;37.70
80250;DHT22;69561;37.974;23.708;2023-04-24T02:48:48;24.50;37.70
80250;DHT22;69561;37.974;23.708;2023-04-24T02:51:13;24.50;37.70
80250;DHT22;69561;37.974;23.708;2023-04-24T02:53:39;24.40;37.70
80250;DHT22;69561;37.974;23.708;2023-04-24T02:56:05;24.50;37.80
80250;DHT22;69561;37.974;23.708;2023-04-24T02:58:31;24.40;37.70
80250;DHT22;69561;37.974;23.708;2023-04-24T03:00:56;24.40;37.80
80250;DHT22;69561;37.974;23.708;2023-04-24T03:03:22;24.40;37.80
80250;DHT22;69561;37.974;23.708;2023-04-24T03:05:49;24.40;37.80
80250;DHT22;69561;37.974;23.708;2023-04-24T03:08:14;24.40;37.80
80250;DHT22;69561;37.974;23.708;2023-04-24T03:10:40;24.40;37.80
80250;DHT22;69561;37.974;23.708;2023-04-24T03:13:06;24.40;37.80
80250;DHT22;69561;37.974;23.708;2023-04-24T03:15:32;24.40;37.80
80250;DHT22;69561;37.974;23.708;2023-04-24T03:17:57;24.40;37.80
80250;DHT22;69561;37.974;23.708;2023-04-24T03:20:23;24.40;37.80
80250;DHT22;69561;37.974;23.708;2023-04-24T03:22:49;24.40;37.90
80250;DHT22;69561;37.974;23.708;2023-04-24T03:25:16;24.40;37.80
80250;DHT22;69561;37.974;23.708;2023-04-24T03:27:41;24.40;37.80
80250;DHT22;69561;37.974;23.708;2023-04-24T03:30:07;24.40;37.90
80250;DHT22;69561;37.974;23.708;2023-04-24T03:32:33;24.40;38.90
80250;DHT22;69561;37.974;23.708;2023-04-24T03:34:59;24.40;38.00
80250;DHT22;69561;37.974;23.708;2023-04-24T03:37:25;24.40;37.90
80250;DHT22;69561;37.974;23.708;2023-04-24T03:39:52;24.50;38.30
80250;DHT22;69561;37.974;23.708;2023-04-24T03:42:17;24.50;38.30
80250;DHT22;69561;37.974;23.708;2023-04-24T03:44:43;24.50;38.40
80250;DHT22;69561;37.974;23.708;2023-04-24T03:47:09;24.50;38.30
80250;DHT22;69561;37.974;23.708;2023-04-24T03:49:35;24.50;38.40
80250;DHT22;69561;37.974;23.708;2023-04-24T03:52:00;24.50;38.40
80250;DHT22;69561;37.974;23.708;2023-04-24T03:54:27;24.50;38.30
80250;DHT22;69561;37.974;23.708;2023-04-24T03:56:52;24.60;38.40
80250;DHT22;69561;37.974;23.708;2023-04-24T03:59:18;24.60;38.30
80250;DHT22;69561;37.974;23.708;2023-04-24T04:01:44;24.60;38.30
80250;DHT22;69561;37.974;23.708;2023-04-24T04:04:10;24.60;38.30
80250;DHT22;69561;37.974;23.708;2023-04-24T04:06:36;24.60;38.30
80250;DHT22;69561;37.974;23.708;2023-04-24T04:09:02;24.60;38.30
80250;DHT22;69561;37.974;23.708;2023-04-24T04:11:29;24.60;38.30
80250;DHT22;69561;37.974;23.708;2023-04-24T04:13:55;24.70;38.30
80250;DHT22;69561;37.974;23.708;2023-04-24T04:16:22;24.80;38.20
80250;DHT22;69561;37.974;23.708;2023-04-24T04:18:48;24.80;39.00
80250;DHT22;69561;37.974;23.708;2023-04-24T04:21:14;25.00;39.40
80250;DHT22;69561;37.974;23.708;2023-04-24T04:23:40;25.10;39.10
80250;DHT22;69561;37.974;23.708;2023-04-24T04:26:06;25.20;39.10
80250;DHT22;69561;37.974;23.708;2023-04-24T04:28:32;25.30;38.90
80250;DHT22;69561;37.974;23.708;2023-04-24T04:30:58;25.40;38.60
80250;DHT22;69561;37.974;23.708;2023-04-24T04:33:24;25.50;38.30
80250;DHT22;69561;37.974;23.708;2023-04-24T04:35:51;25.60;38.10
80250;DHT22;69561;37.974;23.708;2023-04-24T04:38:22;25.60;37.90
80250;DHT22;69561;37.974;23.708;2023-04-24T04:40:48;25.70;37.70
80250;DHT22;69561;37.974;23.708;2023-04-24T04:43:14;25.80;37.60
80250;DHT22;69561;37.974;23.708;2023-04-24T04:45:41;25.80;37.50
80250;DHT22;69561;37.974;23.708;2023-04-24T04:48:08;25.70;37.40
80250;DHT22;69561;37.974;23.708;2023-04-24T04:50:35;25.70;37.50
80250;DHT22;69561;37.974;23.708;2023-04-24T04:53:01;25.80;37.50
80250;DHT22;69561;37.974;23.708;2023-04-24T04:55:27;25.70;37.40
80250;DHT22;69561;37.974;23.708;2023-04-24T04:57:52;25.70;37.40
80250;DHT22;69561;37.974;23.708;2023-04-24T05:00:18;25.70;37.50
80250;DHT22;69561;37.974;23.708;2023-04-24T05:02:44;25.50;37.50
80250;DHT22;69561;37.974;23.708;2023-04-24T05:05:10;25.40;37.70
80250;DHT22;69561;37.974;23.708;2023-04-24T05:07:36;25.30;37.80
80250;DHT22;69561;37.974;23.708;2023-04-24T05:10:02;25.30;38.00
80250;DHT22;69561;37.974;23.708;2023-04-24T05:12:28;25.20;38.00
80250;DHT22;69561;37.974;23.708;2023-04-24T05:14:54;25.20;38.10
80250;DHT22;69561;37.974;23.708;2023-04-24T05:17:20;25.10;38.20
80250;DHT22;69561;37.974;23.708;2023-04-24T05:19:45;25.10;38.20
80250;DHT22;69561;37.974;23.708;2023-04-24T05:22:13;25.10;38.30
80250;DHT22;69561;37.974;23.708;2023-04-24T05:24:38;25.00;38.30
80250;DHT22;69561;37.974;23.708;2023-04-24T05:27:04;25.10;38.40
80250;DHT22;69561;37.974;23.708;2023-04-24T05:29:30;25.10;38.30
80250;DHT22;69561;37.974;23.708;2023-04-24T05:31:57;25.10;38.30
80250;DHT22;69561;37.974;23.708;2023-04-24T05:34:23;25.10;38.30
80250;DHT22;69561;37.974;23.708;2023-04-24T05:36:49;25.10;38.40
80250;DHT22;69561;37.974;23.708;2023-04-24T05:39:16;25.10;38.40
80250;DHT22;69561;37.974;23.708;2023-04-24T05:41:42;25.10;38.50
80250;DHT22;69561;37.974;23.708;2023-04-24T05:44:09;25.10;38.40
80250;DHT22;69561;37.974;23.708;2023-04-24T05:46:34;25.10;38.50
80250;DHT22;69561;37.974;23.708;2023-04-24T05:49:01;25.10;38.40
80250;DHT22;69561;37.974;23.708;2023-04-24T05:51:27;25.10;38.40
80250;DHT22;69561;37.974;23.708;2023-04-24T05:53:53;25.10;38.40
80250;DHT22;69561;37.974;23.708;2023-04-24T05:56:19;25.10;38.40
80250;DHT22;69561;37.974;23.708;2023-04-24T05:58:46;25.10;38.50
80250;DHT22;69561;37.974;23.708;2023-04-24T06:01:12;25.10;38.50
80250;DHT22;69561;37.974;23.708;2023-04-24T06:03:40;25.10;38.40
80250;DHT22;69561;37.974;23.708;2023-04-24T06:06:07;25.20;38.50
80250;DHT22;69561;37.974;23.708;2023-04-24T06:08:33;25.10;38.40
80250;DHT22;69561;37.974;23.708;2023-04-24T06:10:59;25.10;38.40
80250;DHT22;69561;37.974;23.708;2023-04-24T06:13:24;25.20;38.40
80250;DHT22;69561;37.974;23.708;2023-04-24T06:15:51;25.20;38.40
80250;DHT22;69561;37.974;23.708;2023-04-24T06:18:17;25.20;38.50
80250;DHT22;69561;37.974;23.708;2023-04-24T06:20:43;25.20;38.60
80250;DHT22;69561;37.974;23.708;2023-04-24T06:23:09;25.10;38.50
80250;DHT22;69561;37.974;23.708;2023-04-24T06:25:35;25.20;38.60
80250;DHT22;69561;37.974;23.708;2023-04-24T06:28:00;25.20;38.60
80250;DHT22;69561;37.974;23.708;2023-04-24T06:30:27;25.20;38.70
80250;DHT22;69561;37.974;23.708;2023-04-24T06:32:53;25.20;38.80
80250;DHT22;69561;37.974;23.708;2023-04-24T06:35:19;25.10;38.90
80250;DHT22;69561;37.974;23.708;2023-04-24T06:37:45;25.10;38.80
80250;DHT22;69561;37.974;23.708;2023-04-24T06:40:11;25.10;38.90
80250;DHT22;69561;37.974;23.708;2023-04-24T06:42:37;25.20;38.90
80250;DHT22;69561;37.974;23.708;2023-04-24T06:45:03;25.20;38.80
80250;DHT22;69561;37.974;23.708;2023-04-24T06:47:29;25.20;38.70
80250;DHT22;69561;37.974;23.708;2023-04-24T06:49:55;25.20;38.80
80250;DHT22;69561;37.974;23.708;2023-04-24T06:52:21;25.20;38.80
80250;DHT22;69561;37.974;23.708;2023-04-24T06:54:47;25.20;38.80
80250;DHT22;69561;37.974;23.708;2023-04-24T06:57:13;25.20;38.80
80250;DHT22;69561;37.974;23.708;2023-04-24T06:59:38;25.20;38.80
80250;DHT22;69561;37.974;23.708;2023-04-24T07:02:04;25.20;38.70
80250;DHT22;69561;37.974;23.708;2023-04-24T07:04:30;25.30;38.80
80250;DHT22;69561;37.974;23.708;2023-04-24T07:06:58;25.30;38.80
80250;DHT22;69561;37.974;23.708;2023-04-24T07:09:25;25.30;38.80
80250;DHT22;69561;37.974;23.708;2023-04-24T07:11:54;25.30;38.80
80250;DHT22;69561;37.974;23.708;2023-04-24T07:14:22;25.30;38.90
80250;DHT22;69561;37.974;23.708;2023-04-24T07:16:48;25.30;38.90
80250;DHT22;69561;37.974;23.708;2023-04-24T07:19:14;25.20;38.90
80250;DHT22;69561;37.974;23.708;2023-04-24T07:21:40;25.30;39.10
80250;DHT22;69561;37.974;23.708;2023-04-24T07:24:09;25.30;39.10
80250;DHT22;69561;37.974;23.708;2023-04-24T07:26:36;25.30;39.20
80250;DHT22;69561;37.974;23.708;2023-04-24T07:29:02;25.20;39.10
80250;DHT22;69561;37.974;23.708;2023-04-24T07:31:31;25.20;39.30
80250;DHT22;69561;37.974;23.708;2023-04-24T07:33:57;25.20;39.40
80250;DHT22;69561;37.974;23.708;2023-04-24T07:36:25;25.20;39.50
80250;DHT22;69561;37.974;23.708;2023-04-24T07:38:51;25.10;39.30
80250;DHT22;69561;37.974;23.708;2023-04-24T07:41:24;25.20;39.40
80250;DHT22;69561;37.974;23.708;2023-04-24T07:43:50;25.10;39.40
80250;DHT22;69561;37.974;23.708;2023-04-24T07:46:16;25.20;39.40
80250;DHT22;69561;37.974;23.708;2023-04-24T07:48:41;25.20;39.40
80250;DHT22;69561;37.974;23.708;2023-04-24T07:51:07;25.10;39.30
80250;DHT22;69561;37.974;23.708;2023-04-24T07:53:35;25.20;39.50
80250;DHT22;69561;37.974;23.708;2023-04-24T07:56:01;25.20;39.50
80250;DHT22;69561;37.974;23.708;2023-04-24T07:58:28;25.20;39.60
80250;DHT22;69561;37.974;23.708;2023-04-24T08:03:22;25.20;39.60
80250;DHT22;69561;37.974;23.708;2023-04-24T08:05:47;25.20;39.60
80250;DHT22;69561;37.974;23.708;2023-04-24T08:08:13;25.20;39.70
80250;DHT22;69561;37.974;23.708;2023-04-24T08:10:39;25.30;39.90
80250;DHT22;69561;37.974;23.708;2023-04-24T08:13:05;25.30;39.90
80250;DHT22;69561;37.974;23.708;2023-04-24T08:15:30;25.20;39.80
80250;DHT22;69561;37.974;23.708;2023-04-24T08:17:57;25.30;40.00
80250;DHT22;69561;37.974;23.708;2023-04-24T08:20:22;25.20;40.00
80250;DHT22;69561;37.974;23.708;2023-04-24T08:22:48;25.30;40.20
80250;DHT22;69561;37.974;23.708;2023-04-24T08:25:14;25.30;40.30
80250;DHT22;69561;37.974;23.708;2023-04-24T08:27:40;25.20;40.10
80250;DHT22;69561;37.974;23.708;2023-04-24T08:30:07;25.20;40.40
80250;DHT22;69561;37.974;23.708;2023-04-24T08:32:33;25.30;40.70
80250;DHT22;69561;37.974;23.708;2023-04-24T08:34:59;25.30;40.70
80250;DHT22;69561;37.974;23.708;2023-04-24T08:37:26;25.40;40.90
80250;DHT22;69561;37.974;23.708;2023-04-24T08:39:52;25.40;40.90
80250;DHT22;69561;37.974;23.708;2023-04-24T08:42:19;25.30;41.00
80250;DHT22;69561;37.974;23.708;2023-04-24T08:44:45;25.30;41.20
80250;DHT22;69561;37.974;23.708;2023-04-24T08:47:12;25.30;41.30
80250;DHT22;69561;37.974;23.708;2023-04-24T08:49:38;25.30;41.30
80250;DHT22;69561;37.974;23.708;2023-04-24T08:52:07;25.30;41.30
80250;DHT22;69561;37.974;23.708;2023-04-24T08:54:36;25.30;41.20
80250;DHT22;69561;37.974;23.708;2023-04-24T08:57:03;25.30;41.20
80250;DHT22;69561;37.974;23.708;2023-04-24T08:59:30;25.30;41.30
80250;DHT22;69561;37.974;23.708;2023-04-24T09:01:57;25.20;41.50
80250;DHT22;69561;37.974;23.708;2023-04-24T09:04:24;25.20;41.40
80250;DHT22;69561;37.974;23.708;2023-04-24T09:06:52;25.20;41.30
80250;DHT22;69561;37.974;23.708;2023-04-24T09:09:20;25.30;41.20
80250;DHT22;69561;37.974;23.708;2023-04-24T09:11:46;25.30;41.00
80250;DHT22;69561;37.974;23.708;2023-04-24T09:14:14;25.30;41.00
80250;DHT22;69561;37.974;23.708;2023-04-24T09:16:40;25.30;41.00
80250;DHT22;69561;37.974;23.708;2023-04-24T09:19:06;25.30;40.90
80250;DHT22;69561;37.974;23.708;2023-04-24T09:21:33;25.30;40.80
80250;DHT22;69561;37.974;23.708;2023-04-24T09:24:02;25.30;40.70
80250;DHT22;69561;37.974;23.708;2023-04-24T09:26:33;25.30;40.70
80250;DHT22;69561;37.974;23.708;2023-04-24T09:29:00;25.30;40.70
80250;DHT22;69561;37.974;23.708;2023-04-24T09:31:28;25.30;40.60
80250;DHT22;69561;37.974;23.708;2023-04-24T09:33:58;25.30;41.00
80250;DHT22;69561;37.974;23.708;2023-04-24T09:36:29;25.30;41.90
80250;DHT22;69561;37.974;23.708;2023-04-24T09:39:01;25.30;41.00
80250;DHT22;69561;37.974;23.708;2023-04-24T09:41:27;25.30;41.00
80250;DHT22;69561;37.974;23.708;2023-04-24T09:43:56;25.30;41.00
80250;DHT22;69561;37.974;23.708;2023-04-24T09:46:30;25.30;41.20
80250;DHT22;69561;37.974;23.708;2023-04-24T09:49:08;25.30;41.10
80250;DHT22;69561;37.974;23.708;2023-04-24T09:51:37;25.40;41.20
80250;DHT22;69561;37.974;23.708;2023-04-24T09:54:14;25.40;41.30
80250;DHT22;69561;37.974;23.708;2023-04-24T09:56:43;25.40;41.40
80250;DHT22;69561;37.974;23.708;2023-04-24T09:59:09;25.30;41.50
80250;DHT22;69561;37.974;23.708;2023-04-24T10:01:35;25.40;41.40
80250;DHT22;69561;37.974;23.708;2023-04-24T10:04:01;25.40;41.40
80250;DHT22;69561;37.974;23.708;2023-04-24T10:06:34;25.40;41.50
80250;DHT22;69561;37.974;23.708;2023-04-24T10:09:02;25.40;41.80
80250;DHT22;69561;37.974;23.708;2023-04-24T10:11:29;25.40;41.40
80250;DHT22;69561;37.974;23.708;2023-04-24T10:13:56;25.40;41.40
80250;DHT22;69561;37.974;23.708;2023-04-24T10:16:23;25.40;41.50
80250;DHT22;69561;37.974;23.708;2023-04-24T10:18:49;25.40;41.40
80250;DHT22;69561;37.974;23.708;2023-04-24T10:21:16;25.50;41.40
80250;DHT22;69561;37.974;23.708;2023-04-24T10:23:42;25.50;41.40
80250;DHT22;69561;37.974;23.708;2023-04-24T10:26:13;25.50;41.50
80250;DHT22;69561;37.974;23.708;2023-04-24T10:28:47;25.50;41.50
80250;DHT22;69561;37.974;23.708;2023-04-24T10:31:14;25.50;41.40
80250;DHT22;69561;37.974;23.708;2023-04-24T10:33:43;25.50;41.60
80250;DHT22;69561;37.974;23.708;2023-04-24T10:36:12;25.50;41.50
80250;DHT22;69561;37.974;23.708;2023-04-24T10:38:41;25.50;41.60
80250;DHT22;69561;37.974;23.708;2023-04-24T10:41:09;25.50;41.60
80250;DHT22;69561;37.974;23.708;2023-04-24T10:43:35;25.50;41.50
80250;DHT22;69561;37.974;23.708;2023-04-24T10:46:03;25.50;41.60
80250;DHT22;69561;37.974;23.708;2023-04-24T10:48:29;25.50;41.60
80250;DHT22;69561;37.974;23.708;2023-04-24T10:50:55;25.50;41.60
80250;DHT22;69561;37.974;23.708;2023-04-24T10:53:30;25.50;41.60
80250;DHT22;69561;37.974;23.708;2023-04-24T10:58:54;25.50;41.60
80250;DHT22;69561;37.974;23.708;2023-04-24T11:01:30;25.50;41.60
80250;DHT22;69561;37.974;23.708;2023-04-24T11:03:59;25.50;41.60
80250;DHT22;69561;37.974;23.708;2023-04-24T11:06:36;25.50;41.70
80250;DHT22;69561;37.974;23.708;2023-04-24T11:09:07;25.50;41.60
80250;DHT22;69561;37.974;23.708;2023-04-24T11:11:35;25.50;41.60
80250;DHT22;69561;37.974;23.708;2023-04-24T11:14:08;25.50;41.60
80250;DHT22;69561;37.974;23.708;2023-04-24T11:16:53;25.50;41.70
80250;DHT22;69561;37.974;23.708;2023-04-24T11:19:26;25.50;41.70
80250;DHT22;69561;37.974;23.708;2023-04-24T11:22:22;25.40;41.60
80250;DHT22;69561;37.974;23.708;2023-04-24T11:27:16;25.50;41.60
80250;DHT22;69561;37.974;23.708;2023-04-24T11:29:48;25.50;41.60
80250;DHT22;69561;37.974;23.708;2023-04-24T11:34:57;25.50;41.40
80250;DHT22;69561;37.974;23.708;2023-04-24T11:37:24;25.50;41.30
80250;DHT22;69561;37.974;23.708;2023-04-24T11:39:55;25.50;41.30
80250;DHT22;69561;37.974;23.708;2023-04-24T11:42:21;25.50;41.10
80250;DHT22;69561;37.974;23.708;2023-04-24T11:44:49;25.50;41.10
80250;DHT22;69561;37.974;23.708;2023-04-24T11:47:15;25.50;41.10
80250;DHT22;69561;37.974;23.708;2023-04-24T11:49:41;25.50;41.10
80250;DHT22;69561;37.974;23.708;2023-04-24T11:52:07;25.60;41.20
80250;DHT22;69561;37.974;23.708;2023-04-24T11:54:33;25.50;41.10
80250;DHT22;69561;37.974;23.708;2023-04-24T11:56:59;25.60;41.20
80250;DHT22;69561;37.974;23.708;2023-04-24T11:59:25;25.60;41.20
80250;DHT22;69561;37.974;23.708;2023-04-24T12:01:51;25.60;41.20
80250;DHT22;69561;37.974;23.708;2023-04-24T12:04:18;25.50;41.20
80250;DHT22;69561;37.974;23.708;2023-04-24T12:07:00;25.50;41.50
80250;DHT22;69561;37.974;23.708;2023-04-24T12:09:26;25.50;41.50
80250;DHT22;69561;37.974;23.708;2023-04-24T12:11:53;25.50;41.60
80250;DHT22;69561;37.974;23.708;2023-04-24T12:14:21;25.50;41.70
80250;DHT22;69561;37.974;23.708;2023-04-24T12:16:48;25.50;41.70
80250;DHT22;69561;37.974;23.708;2023-04-24T12:19:21;25.50;41.70
80250;DHT22;69561;37.974;23.708;2023-04-24T12:22:04;25.50;41.70
80250;DHT22;69561;37.974;23.708;2023-04-24T12:24:31;25.50;41.70
80250;DHT22;69561;37.974;23.708;2023-04-24T12:26:57;25.50;41.80
80250;DHT22;69561;37.974;23.708;2023-04-24T12:29:24;25.50;41.70
80250;DHT22;69561;37.974;23.708;2023-04-24T12:31:53;25.50;41.70
80250;DHT22;69561;37.974;23.708;2023-04-24T12:34:20;25.50;41.60
80250;DHT22;69561;37.974;23.708;2023-04-24T12:36:47;25.50;41.50
80250;DHT22;69561;37.974;23.708;2023-04-24T12:39:16;25.50;41.40
80250;DHT22;69561;37.974;23.708;2023-04-24T12:42:09;25.50;41.40
80250;DHT22;69561;37.974;23.708;2023-04-24T12:44:35;25.50;41.30
80250;DHT22;69561;37.974;23.708;2023-04-24T12:47:02;25.50;41.30
80250;DHT22;69561;37.974;23.708;2023-04-24T12:49:30;25.60;41.20
80250;DHT22;69561;37.974;23.708;2023-04-24T12:51:56;25.60;41.20
80250;DHT22;69561;37.974;23.708;2023-04-24T12:54:22;25.50;41.10
80250;DHT22;69561;37.974;23.708;2023-04-24T12:56:48;25.60;41.20
80250;DHT22;69561;37.974;23.708;2023-04-24T12:59:13;25.60;41.20
80250;DHT22;69561;37.974;23.708;2023-04-24T13:01:40;25.60;41.00
80250;DHT22;69561;37.974;23.708;2023-04-24T13:04:05;25.60;40.90
80250;DHT22;69561;37.974;23.708;2023-04-24T13:06:31;25.50;40.60
80250;DHT22;69561;37.974;23.708;2023-04-24T13:08:57;25.50;40.60
80250;DHT22;69561;37.974;23.708;2023-04-24T13:11:24;25.50;40.70
80250;DHT22;69561;37.974;23.708;2023-04-24T13:13:50;25.50;40.40
80250;DHT22;69561;37.974;23.708;2023-04-24T13:16:16;25.50;40.30
80250;DHT22;69561;37.974;23.708;2023-04-24T13:18:41;25.50;40.10
80250;DHT22;69561;37.974;23.708;2023-04-24T13:21:07;25.50;40.00
80250;DHT22;69561;37.974;23.708;2023-04-24T13:23:33;25.40;40.00
80250;DHT22;69561;37.974;23.708;2023-04-24T13:26:00;25.40;41.00
80250;DHT22;69561;37.974;23.708;2023-04-24T13:28:26;25.40;41.00
80250;DHT22;69561;37.974;23.708;2023-04-24T13:30:53;25.50;40.10
80250;DHT22;69561;37.974;23.708;2023-04-24T13:33:18;25.50;40.10
80250;DHT22;69561;37.974;23.708;2023-04-24T13:35:44;25.50;40.10
80250;DHT22;69561;37.974;23.708;2023-04-24T13:38:10;25.50;40.00
80250;DHT22;69561;37.974;23.708;2023-04-24T13:40:36;25.50;40.00
80250;DHT22;69561;37.974;23.708;2023-04-24T13:43:02;25.40;40.80
80250;DHT22;69561;37.974;23.708;2023-04-24T13:45:28;25.40;40.10
80250;DHT22;69561;37.974;23.708;2023-04-24T13:47:53;25.40;40.20
80250;DHT22;69561;37.974;23.708;2023-04-24T13:50:20;25.40;40.20
80250;DHT22;69561;37.974;23.708;2023-04-24T13:52:46;25.40;40.40
80250;DHT22;69561;37.974;23.708;2023-04-24T13:55:11;25.40;40.30
80250;DHT22;69561;37.974;23.708;2023-04-24T13:57:37;25.40;40.50
80250;DHT22;69561;37.974;23.708;2023-04-24T14:00:03;25.30;40.50
80250;DHT22;69561;37.974;23.708;2023-04-24T14:02:29;25.30;40.70
80250;DHT22;69561;37.974;23.708;2023-04-24T14:04:55;25.20;40.90
80250;DHT22;69561;37.974;23.708;2023-04-24T14:07:21;25.20;40.90
80250;DHT22;69561;37.974;23.708;2023-04-24T14:09:47;25.20;40.90
80250;DHT22;69561;37.974;23.708;2023-04-24T14:12:13;25.20;40.90
80250;DHT22;69561;37.974;23.708;2023-04-24T14:14:39;25.20;41.00
80250;DHT22;69561;37.974;23.708;2023-04-24T14:17:05;25.30;41.00
80250;DHT22;69561;37.974;23.708;2023-04-24T14:19:31;25.20;41.10
80250;DHT22;69561;37.974;23.708;2023-04-24T14:21:57;25.30;41.20
80250;DHT22;69561;37.974;23.708;2023-04-24T14:24:23;25.30;41.10
80250;DHT22;69561;37.974;23.708;2023-04-24T14:26:49;25.20;41.10
80250;DHT22;69561;37.974;23.708;2023-04-24T14:29:15;25.30;41.10
80250;DHT22;69561;37.974;23.708;2023-04-24T14:31:42;25.20;40.90
80250;DHT22;69561;37.974;23.708;2023-04-24T14:34:09;25.20;40.90
80250;DHT22;69561;37.974;23.708;2023-04-24T14:36:34;25.30;40.90
80250;DHT22;69561;37.974;23.708;2023-04-24T14:39:00;25.20;41.70
80250;DHT22;69561;37.974;23.708;2023-04-24T14:41:30;25.20;40.60
80250;DHT22;69561;37.974;23.708;2023-04-24T14:43:56;25.20;40.50
80250;DHT22;69561;37.974;23.708;2023-04-24T14:46:22;25.20;40.50
80250;DHT22;69561;37.974;23.708;2023-04-24T14:48:48;25.20;40.60
80250;DHT22;69561;37.974;23.708;2023-04-24T14:51:14;25.20;40.60
80250;DHT22;69561;37.974;23.708;2023-04-24T14:53:39;25.20;40.60
80250;DHT22;69561;37.974;23.708;2023-04-24T14:56:06;25.20;40.80
80250;DHT22;69561;37.974;23.708;2023-04-24T14:58:31;25.20;40.90
80250;DHT22;69561;37.974;23.708;2023-04-24T15:00:57;25.20;41.30
80250;DHT22;69561;37.974;23.708;2023-04-24T15:03:23;25.20;41.30
80250;DHT22;69561;37.974;23.708;2023-04-24T15:05:49;25.20;41.40
80250;DHT22;69561;37.974;23.708;2023-04-24T15:08:15;25.20;41.30
80250;DHT22;69561;37.974;23.708;2023-04-24T15:10:41;25.20;41.20
80250;DHT22;69561;37.974;23.708;2023-04-24T15:13:07;25.10;40.90
80250;DHT22;69561;37.974;23.708;2023-04-24T15:15:33;25.20;41.00
80250;DHT22;69561;37.974;23.708;2023-04-24T15:17:58;25.20;40.70
80250;DHT22;69561;37.974;23.708;2023-04-24T15:20:24;25.20;40.40
80250;DHT22;69561;37.974;23.708;2023-04-24T15:22:50;25.20;40.40